createdAt,value
2022-12-27T00:00:20.444Z,5.90
2022-12-27T00:01:20.394Z,5.94
2022-12-27T00:02:20.489Z,5.94
2022-12-27T00:03:20.458Z,5.94
2022-12-27T00:04:20.367Z,5.94
2022-12-27T00:05:20.373Z,5.93
2022-12-27T00:06:20.376Z,5.97
2022-12-27T00:07:20.340Z,6.02
2022-12-27T00:08:20.335Z,6.02
2022-12-27T00:09:20.361Z,6.11
2022-12-27T00:10:20.331Z,6.05
2022-12-27T00:11:20.304Z,6.03
2022-12-27T00:12:20.296Z,6.03
2022-12-27T00:13:20.312Z,6.05
2022-12-27T00:14:20.297Z,6.06
2022-12-27T00:15:20.266Z,6.02
2022-12-27T00:16:20.298Z,6.09
2022-12-27T00:17:20.239Z,6.12
2022-12-27T00:18:20.244Z,6.06
2022-12-27T00:19:20.253Z,5.88
2022-12-27T00:20:20.221Z,5.90
2022-12-27T00:21:20.188Z,5.84
2022-12-27T00:22:20.241Z,5.88
2022-12-27T00:23:20.206Z,5.87
2022-12-27T00:24:20.199Z,5.84
2022-12-27T00:25:20.161Z,5.91
2022-12-27T00:26:20.154Z,5.97
2022-12-27T00:27:20.157Z,5.98
2022-12-27T00:28:20.160Z,6.06
2022-12-27T00:29:20.154Z,6.08
2022-12-27T00:30:20.123Z,6.03
2022-12-27T00:31:20.160Z,6.00
2022-12-27T00:32:20.088Z,5.97
2022-12-27T00:33:20.101Z,5.97
2022-12-27T00:34:20.112Z,5.87
2022-12-27T00:35:20.063Z,5.76
2022-12-27T00:36:20.071Z,5.79
2022-12-27T00:37:20.049Z,5.82
2022-12-27T00:38:20.036Z,5.91
2022-12-27T00:39:20.055Z,5.80
2022-12-27T00:40:20.005Z,5.77
2022-12-27T00:41:20.007Z,5.76
2022-12-27T00:42:19.989Z,5.65
2022-12-27T00:43:19.987Z,5.62
2022-12-27T00:44:19.971Z,5.51
2022-12-27T00:45:20.005Z,5.32
2022-12-27T00:46:19.979Z,5.34
2022-12-27T00:47:19.947Z,5.33
2022-12-27T00:48:19.953Z,5.41
2022-12-27T00:49:19.935Z,5.47
2022-12-27T00:50:19.952Z,5.47
2022-12-27T00:51:19.912Z,5.52
2022-12-27T00:52:19.898Z,5.58
2022-12-27T00:53:19.874Z,5.62
2022-12-27T00:54:19.898Z,5.61
2022-12-27T00:55:19.900Z,5.54
2022-12-27T00:56:19.859Z,5.43
2022-12-27T00:57:19.844Z,5.40
2022-12-27T00:58:19.904Z,5.41
2022-12-27T00:59:19.822Z,5.37
2022-12-27T01:00:19.843Z,5.40
2022-12-27T01:01:19.900Z,5.36
2022-12-27T01:02:19.819Z,5.37
2022-12-27T01:03:19.817Z,5.36
2022-12-27T01:04:19.795Z,5.41
2022-12-27T01:05:19.760Z,5.47
2022-12-27T01:06:19.764Z,5.51
2022-12-27T01:07:19.737Z,5.54
2022-12-27T01:08:19.749Z,5.55
2022-12-27T01:09:19.741Z,5.58
2022-12-27T01:10:19.734Z,5.57
2022-12-27T01:11:19.719Z,5.43
2022-12-27T01:12:19.697Z,5.41
2022-12-27T01:13:19.685Z,5.34
2022-12-27T01:14:19.697Z,5.30
2022-12-27T01:15:19.656Z,5.24
2022-12-27T01:16:19.738Z,5.30
2022-12-27T01:17:19.642Z,5.39
2022-12-27T01:18:19.629Z,5.52
2022-12-27T01:19:19.679Z,5.61
2022-12-27T01:20:19.626Z,5.58
2022-12-27T01:21:19.619Z,5.59
2022-12-27T01:22:19.616Z,5.59
2022-12-27T01:23:19.611Z,5.57
2022-12-27T01:24:19.576Z,5.61
2022-12-27T01:25:19.593Z,5.58
2022-12-27T01:26:19.574Z,5.61
2022-12-27T01:27:19.555Z,5.61
2022-12-27T01:28:19.552Z,5.61
2022-12-27T01:29:19.560Z,5.65
2022-12-27T01:30:19.527Z,5.66
2022-12-27T01:31:19.535Z,5.67
2022-12-27T01:32:19.524Z,5.61
2022-12-27T01:33:19.510Z,5.52
2022-12-27T01:34:19.488Z,5.54
2022-12-27T01:35:19.482Z,5.59
2022-12-27T01:36:19.471Z,5.66
2022-12-27T01:37:19.457Z,5.62
2022-12-27T01:38:19.500Z,5.66
2022-12-27T01:39:19.448Z,5.69
2022-12-27T01:40:19.459Z,5.75
2022-12-27T01:41:19.412Z,5.77
2022-12-27T01:42:19.428Z,5.79
2022-12-27T01:43:19.420Z,5.84
2022-12-27T01:44:19.390Z,5.90
2022-12-27T01:45:19.386Z,5.85
2022-12-27T01:46:19.435Z,5.80
2022-12-27T01:47:19.383Z,5.79
2022-12-27T01:48:19.371Z,5.80
2022-12-27T01:49:19.352Z,5.84
2022-12-27T01:50:19.384Z,5.84
2022-12-27T01:51:19.356Z,5.79
2022-12-27T01:52:19.321Z,5.75
2022-12-27T01:53:19.335Z,5.72
2022-12-27T01:54:19.294Z,5.62
2022-12-27T01:55:19.296Z,5.62
2022-12-27T01:56:19.260Z,5.55
2022-12-27T01:57:19.266Z,5.52
2022-12-27T01:58:19.257Z,5.54
2022-12-27T01:59:19.230Z,5.62
2022-12-27T02:00:19.310Z,5.69
2022-12-27T02:01:19.302Z,5.61
2022-12-27T02:02:19.322Z,5.55
2022-12-27T02:03:19.259Z,5.51
2022-12-27T02:04:19.198Z,5.50
2022-12-27T02:05:19.186Z,5.47
2022-12-27T02:06:19.168Z,5.43
2022-12-27T02:07:19.149Z,5.54
2022-12-27T02:08:19.152Z,5.59
2022-12-27T02:09:19.171Z,5.62
2022-12-27T02:10:19.151Z,5.65
2022-12-27T02:11:19.120Z,5.59
2022-12-27T02:12:19.100Z,5.58
2022-12-27T02:13:19.090Z,5.67
2022-12-27T02:14:22.321Z,5.79
2022-12-27T02:15:19.075Z,5.84
2022-12-27T02:16:19.143Z,5.84
2022-12-27T02:17:19.042Z,5.94
2022-12-27T02:18:19.055Z,5.97
2022-12-27T02:19:19.045Z,5.98
2022-12-27T02:20:19.044Z,5.97
2022-12-27T02:21:19.022Z,5.90
2022-12-27T02:22:19.009Z,5.90
2022-12-27T02:23:18.984Z,5.84
2022-12-27T02:24:19.021Z,5.79
2022-12-27T02:25:18.975Z,5.72
2022-12-27T02:26:18.959Z,5.59
2022-12-27T02:27:18.950Z,5.43
2022-12-27T02:28:18.950Z,5.36
2022-12-27T02:29:18.948Z,5.33
2022-12-27T02:30:18.923Z,5.40
2022-12-27T02:31:19.022Z,5.44
2022-12-27T02:32:18.914Z,5.41
2022-12-27T02:33:18.892Z,5.37
2022-12-27T02:34:18.899Z,5.29
2022-12-27T02:35:18.885Z,5.32
2022-12-27T02:36:18.889Z,5.33
2022-12-27T02:37:18.865Z,5.25
2022-12-27T02:38:18.874Z,5.27
2022-12-27T02:39:18.833Z,5.27
2022-12-27T02:40:18.822Z,5.29
2022-12-27T02:41:18.809Z,5.32
2022-12-27T02:42:18.850Z,5.33
2022-12-27T02:43:18.798Z,5.32
2022-12-27T02:44:18.785Z,5.27
2022-12-27T02:45:18.783Z,5.33
2022-12-27T02:46:21.632Z,5.27
2022-12-27T02:47:18.777Z,5.24
2022-12-27T02:48:18.738Z,5.18
2022-12-27T02:49:18.744Z,5.25
2022-12-27T02:50:18.748Z,5.24
2022-12-27T02:51:18.734Z,5.25
2022-12-27T02:52:18.710Z,5.32
2022-12-27T02:53:18.743Z,5.37
2022-12-27T02:54:18.691Z,5.41
2022-12-27T02:55:18.715Z,5.51
2022-12-27T02:56:18.669Z,5.54
2022-12-27T02:57:18.689Z,5.55
2022-12-27T02:58:18.661Z,5.54
2022-12-27T02:59:18.648Z,5.52
2022-12-27T03:00:18.636Z,5.47
2022-12-27T03:01:18.843Z,5.43
2022-12-27T03:02:18.827Z,5.39
2022-12-27T03:03:18.635Z,5.33
2022-12-27T03:04:18.578Z,5.30
2022-12-27T03:05:18.602Z,5.27
2022-12-27T03:06:18.586Z,5.24
2022-12-27T03:07:18.562Z,5.25
2022-12-27T03:08:18.575Z,5.22
2022-12-27T03:09:18.550Z,5.21
2022-12-27T03:10:18.523Z,5.18
2022-12-27T03:11:18.551Z,5.15
2022-12-27T03:12:18.511Z,5.22
2022-12-27T03:13:18.531Z,5.18
2022-12-27T03:14:18.486Z,5.19
2022-12-27T03:15:18.501Z,5.16
2022-12-27T03:16:18.570Z,5.18
2022-12-27T03:17:18.490Z,5.15
2022-12-27T03:18:18.489Z,5.14
2022-12-27T03:19:18.461Z,5.11
2022-12-27T03:20:18.443Z,5.11
2022-12-27T03:21:18.446Z,5.11
2022-12-27T03:22:18.399Z,5.15
2022-12-27T03:23:18.431Z,5.21
2022-12-27T03:24:18.402Z,5.27
2022-12-27T03:25:18.415Z,5.36
2022-12-27T03:26:18.368Z,5.39
2022-12-27T03:27:18.554Z,5.41
2022-12-27T03:28:19.022Z,5.37
2022-12-27T03:29:18.376Z,5.36
2022-12-27T03:30:18.338Z,5.33
2022-12-27T03:31:18.387Z,5.32
2022-12-27T03:32:18.304Z,5.32
2022-12-27T03:33:18.323Z,5.33
2022-12-27T03:34:18.395Z,5.36
2022-12-27T03:35:18.289Z,5.41
2022-12-27T03:36:18.290Z,5.66
2022-12-27T03:37:18.274Z,5.80
2022-12-27T03:38:18.303Z,5.91
2022-12-27T03:39:18.287Z,5.84
2022-12-27T03:40:18.247Z,5.77
2022-12-27T03:41:18.232Z,5.65
2022-12-27T03:42:18.241Z,5.57
2022-12-27T03:43:18.220Z,5.57
2022-12-27T03:44:18.217Z,5.58
2022-12-27T03:45:18.590Z,5.58
2022-12-27T03:46:18.256Z,5.69
2022-12-27T03:47:18.177Z,5.69
2022-12-27T03:48:18.167Z,5.76
2022-12-27T03:49:18.154Z,5.80
2022-12-27T03:50:18.194Z,5.79
2022-12-27T03:51:18.132Z,5.72
2022-12-27T03:52:18.113Z,5.59
2022-12-27T03:53:18.123Z,5.51
2022-12-27T03:54:18.095Z,5.44
2022-12-27T03:55:18.105Z,5.43
2022-12-27T03:56:18.109Z,5.43
2022-12-27T03:57:18.155Z,5.43
2022-12-27T03:58:18.085Z,5.48
2022-12-27T03:59:18.099Z,5.54
2022-12-27T04:00:18.093Z,5.65
2022-12-27T04:01:18.173Z,5.65
2022-12-27T04:02:18.484Z,5.62
2022-12-27T04:03:18.814Z,5.54
2022-12-27T04:04:18.001Z,5.47
2022-12-27T04:05:18.025Z,5.36
2022-12-27T04:06:18.006Z,5.29
2022-12-27T04:07:18.050Z,5.25
2022-12-27T04:08:17.964Z,5.19
2022-12-27T04:09:17.982Z,5.16
2022-12-27T04:10:17.959Z,5.18
2022-12-27T04:11:17.931Z,5.19
2022-12-27T04:12:17.986Z,5.21
2022-12-27T04:13:17.907Z,5.19
2022-12-27T04:14:17.891Z,5.19
2022-12-27T04:15:17.899Z,5.16
2022-12-27T04:16:17.914Z,5.21
2022-12-27T04:17:17.953Z,5.16
2022-12-27T04:18:17.852Z,5.14
2022-12-27T04:19:17.850Z,5.15
2022-12-27T04:20:17.844Z,5.12
2022-12-27T04:21:17.833Z,5.11
2022-12-27T04:22:17.849Z,5.11
2022-12-27T04:23:17.826Z,5.04
2022-12-27T04:24:17.802Z,5.09
2022-12-27T04:25:17.806Z,5.14
2022-12-27T04:26:17.810Z,5.11
2022-12-27T04:27:17.770Z,5.14
2022-12-27T04:28:17.801Z,5.14
2022-12-27T04:29:18.538Z,5.09
2022-12-27T04:30:17.730Z,5.12
2022-12-27T04:31:17.788Z,5.12
2022-12-27T04:32:17.730Z,5.14
2022-12-27T04:33:17.721Z,5.12
2022-12-27T04:34:18.027Z,5.11
2022-12-27T04:35:17.693Z,5.03
2022-12-27T04:36:17.692Z,5.06
2022-12-27T04:37:17.671Z,5.06
2022-12-27T04:38:17.662Z,5.12
2022-12-27T04:39:17.681Z,5.19
2022-12-27T04:40:17.665Z,5.27
2022-12-27T04:41:17.635Z,5.30
2022-12-27T04:42:17.633Z,5.33
2022-12-27T04:43:17.622Z,5.36
2022-12-27T04:44:17.595Z,5.25
2022-12-27T04:45:17.626Z,5.19
2022-12-27T04:46:17.670Z,5.19
2022-12-27T04:47:17.748Z,5.25
2022-12-27T04:48:17.561Z,5.32
2022-12-27T04:49:17.569Z,5.36
2022-12-27T04:50:17.601Z,5.36
2022-12-27T04:51:17.541Z,5.43
2022-12-27T04:52:17.536Z,5.48
2022-12-27T04:53:17.515Z,5.47
2022-12-27T04:54:17.518Z,5.47
2022-12-27T04:55:17.534Z,5.48
2022-12-27T04:56:17.476Z,5.61
2022-12-27T04:57:17.477Z,5.67
2022-12-27T04:58:17.473Z,5.76
2022-12-27T04:59:18.014Z,5.84
2022-12-27T05:00:17.459Z,5.87
2022-12-27T05:01:17.480Z,5.93
2022-12-27T05:02:17.569Z,5.85
2022-12-27T05:03:17.578Z,5.75
2022-12-27T05:04:17.410Z,5.69
2022-12-27T05:05:17.415Z,5.69
2022-12-27T05:06:17.447Z,5.66
2022-12-27T06:05:29.069Z,5.62
2022-12-27T06:05:34.135Z,5.03
2022-12-27T06:06:35.500Z,5.07
2022-12-27T06:07:35.490Z,5.09
2022-12-27T06:08:35.483Z,5.14
2022-12-27T07:15:46.352Z,5.14
2022-12-27T10:39:54.084Z,6.61
2022-12-27T10:40:55.085Z,6.55
2022-12-27T10:41:55.106Z,6.56
2022-12-27T10:42:55.048Z,6.53
2022-12-27T10:43:54.969Z,6.40
2022-12-27T10:44:55.039Z,6.30
2022-12-27T10:45:55.049Z,6.31
2022-12-27T10:46:55.064Z,6.40
2022-12-27T10:47:54.999Z,6.37
2022-12-27T10:49:20.071Z,6.42
2022-12-27T10:49:55.023Z,6.49
2022-12-27T10:50:54.969Z,6.53
2022-12-27T10:51:54.903Z,6.53
2022-12-27T10:52:57.720Z,6.55
2022-12-27T10:53:54.931Z,6.60
2022-12-27T10:54:54.875Z,6.63
2022-12-27T10:55:55.169Z,6.68
2022-12-27T10:56:54.880Z,6.88
2022-12-27T10:57:54.859Z,6.96
2022-12-27T10:58:58.768Z,7.03
2022-12-27T10:59:54.885Z,7.08
2022-12-27T11:00:54.852Z,7.18
2022-12-27T11:01:55.215Z,7.25
2022-12-27T11:02:54.937Z,7.31
2022-12-27T11:03:54.776Z,7.34
2022-12-27T11:04:54.774Z,7.36
2022-12-27T11:05:54.765Z,7.36
2022-12-27T11:06:54.772Z,7.34
2022-12-27T11:07:54.920Z,7.39
2022-12-27T11:08:54.765Z,7.39
2022-12-27T11:09:54.715Z,7.42
2022-12-27T11:10:54.702Z,7.34
2022-12-27T11:11:54.720Z,7.34
2022-12-27T11:12:54.713Z,7.26
2022-12-27T11:13:54.675Z,7.15
2022-12-27T11:14:54.656Z,7.03
2022-12-27T11:15:58.530Z,6.91
2022-12-27T11:16:54.651Z,6.92
2022-12-27T11:17:54.762Z,6.91
2022-12-27T11:18:54.631Z,6.88
2022-12-27T11:19:54.612Z,6.88
2022-12-27T11:20:54.602Z,6.83
2022-12-27T11:21:54.594Z,6.74
2022-12-27T11:22:54.636Z,6.70
2022-12-27T11:23:54.571Z,6.71
2022-12-27T11:24:54.592Z,6.82
2022-12-27T11:25:54.602Z,6.88
2022-12-27T11:26:54.645Z,6.89
2022-12-27T11:27:55.332Z,6.93
2022-12-27T11:28:54.557Z,6.97
2022-12-27T11:29:54.510Z,7.01
2022-12-27T11:30:54.547Z,7.04
2022-12-27T11:31:54.558Z,7.01
2022-12-27T11:32:54.489Z,6.99
2022-12-27T11:33:54.481Z,6.96
2022-12-27T11:34:54.471Z,7.01
2022-12-27T11:35:54.502Z,7.07
2022-12-27T11:36:54.483Z,7.21
2022-12-27T11:37:54.490Z,7.26
2022-12-27T11:38:54.431Z,7.28
2022-12-27T11:39:54.498Z,7.29
2022-12-27T11:40:54.403Z,7.29
2022-12-27T11:41:54.395Z,7.36
2022-12-27T11:42:54.413Z,7.42
2022-12-27T11:43:54.386Z,7.49
2022-12-27T11:44:54.420Z,7.50
2022-12-27T11:45:54.385Z,7.58
2022-12-27T11:46:59.081Z,7.61
2022-12-27T11:47:54.334Z,7.69
2022-12-27T11:48:54.338Z,7.71
2022-12-27T11:49:54.331Z,7.76
2022-12-27T11:50:54.306Z,7.83
2022-12-27T11:51:54.285Z,7.87
2022-12-27T11:52:54.284Z,7.84
2022-12-27T11:53:56.600Z,7.88
2022-12-27T11:54:54.331Z,7.87
2022-12-27T11:55:54.281Z,7.83
2022-12-27T11:56:54.240Z,7.71
2022-12-27T11:57:54.255Z,7.62
2022-12-27T11:58:54.228Z,7.64
2022-12-27T11:59:54.222Z,7.61
2022-12-27T12:00:54.228Z,7.64
2022-12-27T12:01:54.329Z,7.61
2022-12-27T12:02:54.354Z,7.58
2022-12-27T12:03:54.207Z,7.58
2022-12-27T12:04:54.154Z,7.50
2022-12-27T12:05:54.155Z,7.47
2022-12-27T12:06:54.136Z,7.47
2022-12-27T12:07:54.165Z,7.50
2022-12-27T12:08:54.141Z,7.54
2022-12-27T12:09:54.148Z,7.52
2022-12-27T12:10:54.135Z,7.52
2022-12-27T12:11:55.363Z,7.57
2022-12-27T12:12:54.095Z,7.62
2022-12-27T12:13:54.078Z,7.69
2022-12-27T12:14:54.080Z,7.77
2022-12-27T12:15:54.041Z,7.83
2022-12-27T12:16:54.056Z,7.87
2022-12-27T12:17:54.104Z,7.80
2022-12-27T12:18:54.017Z,7.76
2022-12-27T12:19:54.333Z,7.77
2022-12-27T12:20:54.008Z,7.73
2022-12-27T12:21:53.984Z,7.73
2022-12-27T12:22:53.986Z,7.71
2022-12-27T12:23:53.986Z,7.71
2022-12-27T12:24:53.983Z,7.61
2022-12-27T12:25:53.997Z,7.55
2022-12-27T12:26:55.975Z,7.50
2022-12-27T12:27:54.011Z,7.49
2022-12-27T12:28:59.357Z,7.47
2022-12-27T12:29:53.968Z,7.47
2022-12-27T12:30:53.928Z,7.50
2022-12-27T12:31:53.984Z,7.54
2022-12-27T12:32:53.891Z,7.55
2022-12-27T12:33:53.862Z,7.62
2022-12-27T12:34:53.980Z,7.64
2022-12-27T12:35:53.861Z,7.61
2022-12-27T12:36:53.830Z,7.62
2022-12-27T12:37:53.843Z,7.62
2022-12-27T12:38:53.814Z,7.60
2022-12-27T12:39:53.806Z,7.62
2022-12-27T12:40:53.830Z,7.62
2022-12-27T12:41:54.627Z,7.61
2022-12-27T12:42:53.767Z,7.64
2022-12-27T12:43:53.817Z,7.66
2022-12-27T12:44:53.817Z,7.74
2022-12-27T12:45:53.789Z,7.74
2022-12-27T12:46:53.747Z,7.77
2022-12-27T12:47:54.765Z,7.80
2022-12-27T12:48:53.763Z,7.83
2022-12-27T12:49:53.713Z,7.88
2022-12-27T12:50:53.724Z,7.84
2022-12-27T12:51:53.673Z,7.74
2022-12-27T12:52:53.728Z,7.71
2022-12-27T12:53:53.689Z,7.64
2022-12-27T12:54:53.688Z,7.57
2022-12-27T12:55:53.708Z,7.52
2022-12-27T12:56:53.648Z,7.57
2022-12-27T12:57:53.659Z,7.61
2022-12-27T12:58:53.652Z,7.64
2022-12-27T12:59:53.643Z,7.64
2022-12-27T13:00:53.661Z,7.66
2022-12-27T13:01:53.782Z,7.64
2022-12-27T13:02:53.767Z,7.64
2022-12-27T13:03:53.564Z,7.61
2022-12-27T13:04:53.561Z,7.61
2022-12-27T13:05:53.576Z,7.61
2022-12-27T13:06:53.543Z,7.66
2022-12-27T13:07:53.608Z,7.66
2022-12-27T13:08:53.539Z,7.68
2022-12-27T13:09:53.511Z,7.69
2022-12-27T13:10:53.524Z,7.76
2022-12-27T13:11:53.492Z,7.78
2022-12-27T13:12:53.467Z,7.95
2022-12-27T13:13:53.486Z,8.05
2022-12-27T13:14:53.439Z,7.99
2022-12-27T13:15:53.478Z,7.84
2022-12-27T13:16:53.528Z,7.71
2022-12-27T13:17:53.443Z,7.58
2022-12-27T13:18:53.401Z,7.49
2022-12-27T13:19:53.411Z,7.43
2022-12-27T13:20:53.390Z,7.44
2022-12-27T13:21:53.448Z,7.46
2022-12-27T13:22:53.376Z,7.55
2022-12-27T13:23:53.366Z,7.57
2022-12-27T13:24:53.343Z,7.62
2022-12-27T13:25:53.576Z,7.71
2022-12-27T13:26:53.404Z,7.71
2022-12-27T13:27:53.343Z,7.77
2022-12-27T13:28:54.161Z,7.77
2022-12-27T13:29:53.358Z,7.83
2022-12-27T13:30:53.410Z,7.83
2022-12-27T13:31:53.289Z,7.86
2022-12-27T13:32:53.304Z,7.88
2022-12-27T13:33:53.292Z,7.91
2022-12-27T13:34:53.273Z,7.87
2022-12-27T13:35:53.261Z,7.91
2022-12-27T13:36:53.235Z,7.88
2022-12-27T13:37:53.280Z,7.92
2022-12-27T13:38:53.239Z,7.88
2022-12-27T13:39:53.202Z,7.88
2022-12-27T13:40:53.192Z,7.91
2022-12-27T13:41:53.213Z,7.88
2022-12-27T13:42:53.193Z,7.83
2022-12-27T13:43:53.184Z,7.83
2022-12-27T13:44:53.449Z,7.80
2022-12-27T13:45:53.162Z,7.78
2022-12-27T13:46:53.134Z,7.84
2022-12-27T13:47:53.144Z,7.83
2022-12-27T13:48:53.128Z,7.84
2022-12-27T13:49:53.130Z,7.78
2022-12-27T13:50:53.367Z,7.78
2022-12-27T13:51:53.074Z,7.80
2022-12-27T13:52:59.253Z,7.77
2022-12-27T13:53:53.082Z,7.80
2022-12-27T13:54:53.097Z,7.80
2022-12-27T13:55:53.038Z,7.78
2022-12-27T13:56:54.873Z,7.83
2022-12-27T13:57:53.023Z,7.87
2022-12-27T13:58:59.261Z,7.84
2022-12-27T13:59:53.013Z,7.84
2022-12-27T14:00:53.035Z,7.83
2022-12-27T14:01:53.049Z,7.84
2022-12-27T14:02:53.004Z,7.80
2022-12-27T14:03:52.968Z,7.77
2022-12-27T14:04:59.167Z,7.77
2022-12-27T14:05:52.962Z,7.78
2022-12-27T14:06:52.951Z,7.77
2022-12-27T14:07:52.919Z,7.76
2022-12-27T14:08:52.941Z,7.74
2022-12-27T14:09:52.918Z,7.69
2022-12-27T14:11:00.436Z,7.64
2022-12-27T14:11:52.934Z,7.60
2022-12-27T14:12:52.877Z,7.55
2022-12-27T14:13:52.864Z,7.54
2022-12-27T14:14:52.842Z,7.52
2022-12-27T14:15:52.934Z,7.50
2022-12-27T14:16:59.063Z,7.52
2022-12-27T14:17:52.848Z,7.52
2022-12-27T14:18:52.808Z,7.50
2022-12-27T14:19:52.823Z,7.54
2022-12-27T14:20:52.800Z,7.54
2022-12-27T14:21:52.823Z,7.52
2022-12-27T14:22:54.439Z,7.49
2022-12-27T14:23:52.760Z,7.54
2022-12-27T14:24:52.751Z,7.49
2022-12-27T14:25:52.759Z,7.47
2022-12-27T14:26:53.029Z,7.46
2022-12-27T14:27:52.724Z,7.43
2022-12-27T14:28:59.333Z,7.43
2022-12-27T14:29:52.719Z,7.43
2022-12-27T14:30:52.787Z,7.44
2022-12-27T14:31:52.748Z,7.42
2022-12-27T14:32:52.722Z,7.43
2022-12-27T14:33:52.943Z,7.42
2022-12-27T14:34:58.853Z,7.40
2022-12-27T14:35:52.650Z,7.40
2022-12-27T14:36:52.677Z,7.37
2022-12-27T14:37:52.674Z,7.37
2022-12-27T14:38:52.607Z,7.33
2022-12-27T14:39:52.595Z,7.25
2022-12-27T14:40:52.742Z,7.24
2022-12-27T14:41:52.668Z,7.24
2022-12-27T14:42:52.599Z,7.21
2022-12-27T14:43:52.562Z,7.19
2022-12-27T14:44:52.561Z,7.22
2022-12-27T14:45:57.473Z,7.22
2022-12-27T14:46:52.570Z,7.22
2022-12-27T14:47:52.528Z,7.21
2022-12-27T14:48:52.505Z,7.15
2022-12-27T14:49:52.525Z,7.01
2022-12-27T14:50:52.521Z,6.89
2022-12-27T14:52:02.380Z,6.82
2022-12-27T14:52:52.486Z,6.79
2022-12-27T14:53:52.456Z,6.79
2022-12-27T14:54:52.496Z,6.78
2022-12-27T14:55:52.445Z,6.75
2022-12-27T14:56:52.448Z,6.75
2022-12-27T14:57:52.414Z,6.78
2022-12-27T14:58:52.399Z,6.82
2022-12-27T14:59:52.433Z,6.86
2022-12-27T15:00:52.397Z,6.93
2022-12-27T15:01:52.478Z,6.93
2022-12-27T15:02:52.512Z,6.96
2022-12-27T15:03:52.377Z,6.97
2022-12-27T15:04:52.363Z,6.93
2022-12-27T15:05:52.429Z,6.91
2022-12-27T15:06:52.348Z,6.93
2022-12-27T15:07:52.390Z,6.97
2022-12-27T15:08:52.314Z,6.97
2022-12-27T15:09:52.293Z,6.99
2022-12-27T15:10:52.295Z,7.01
2022-12-27T15:11:52.275Z,7.01
2022-12-27T15:12:52.297Z,6.97
2022-12-27T15:13:52.280Z,6.97
2022-12-27T15:14:52.275Z,6.93
2022-12-27T15:15:52.269Z,6.91
2022-12-27T15:16:52.257Z,6.91
2022-12-27T15:17:52.226Z,6.91
2022-12-27T15:18:52.483Z,6.91
2022-12-27T15:19:52.265Z,6.88
2022-12-27T15:20:52.181Z,6.85
2022-12-27T15:21:52.213Z,6.79
2022-12-27T15:22:52.246Z,6.79
2022-12-27T15:23:52.203Z,6.81
2022-12-27T15:24:52.173Z,6.85
2022-12-27T15:25:52.136Z,6.85
2022-12-27T15:26:52.140Z,6.89
2022-12-27T15:27:52.120Z,6.92
2022-12-27T15:28:52.111Z,6.93
2022-12-27T15:29:52.175Z,6.96
2022-12-27T15:30:52.143Z,6.97
2022-12-27T15:31:52.074Z,6.96
2022-12-27T15:32:53.384Z,6.81
2022-12-27T15:33:52.060Z,6.73
2022-12-27T15:34:52.067Z,6.71
2022-12-27T15:35:52.098Z,6.67
2022-12-27T15:36:52.085Z,6.57
2022-12-27T15:37:52.008Z,6.43
2022-12-27T15:38:54.572Z,6.34
2022-12-27T15:39:52.005Z,6.35
2022-12-27T15:40:52.081Z,6.35
2022-12-27T15:41:52.008Z,6.42
2022-12-27T15:42:51.992Z,6.47
2022-12-27T15:43:52.160Z,6.46
2022-12-27T15:44:51.948Z,6.49
2022-12-27T15:45:51.939Z,6.46
2022-12-27T15:46:51.970Z,6.43
2022-12-27T15:47:51.953Z,6.38
2022-12-27T15:48:53.856Z,6.30
2022-12-27T15:49:51.936Z,6.24
2022-12-27T15:50:51.985Z,6.24
2022-12-27T15:51:51.885Z,6.13
2022-12-27T15:52:51.893Z,6.12
2022-12-27T15:53:51.901Z,6.11
2022-12-27T15:54:54.025Z,6.08
2022-12-27T15:55:51.857Z,6.11
2022-12-27T15:56:51.843Z,6.15
2022-12-27T15:57:51.838Z,6.19
2022-12-27T15:58:51.826Z,6.06
2022-12-27T15:59:51.837Z,6.09
2022-12-27T16:00:51.822Z,6.03
2022-12-27T16:01:51.937Z,6.09
2022-12-27T16:02:52.158Z,6.08
2022-12-27T16:03:51.839Z,6.11
2022-12-27T16:04:51.737Z,6.09
2022-12-27T16:05:51.761Z,6.12
2022-12-27T16:06:52.271Z,6.03
2022-12-27T16:07:51.722Z,5.95
2022-12-27T16:08:51.735Z,5.88
2022-12-27T16:09:51.734Z,5.91
2022-12-27T16:10:51.720Z,5.84
2022-12-27T16:11:51.765Z,5.85
2022-12-27T16:12:51.713Z,5.88
2022-12-27T16:13:51.711Z,5.91
2022-12-27T16:14:51.747Z,5.94
2022-12-27T16:15:51.731Z,5.97
2022-12-27T16:16:51.692Z,5.95
2022-12-27T16:17:51.656Z,5.94
2022-12-27T16:18:51.588Z,5.93
2022-12-27T16:19:51.667Z,5.91
2022-12-27T16:20:51.653Z,5.93
2022-12-27T16:21:51.651Z,5.98
2022-12-27T16:22:51.728Z,6.02
2022-12-27T16:23:51.597Z,6.03
2022-12-27T16:24:51.544Z,6.00
2022-12-27T16:25:51.619Z,6.03
2022-12-27T16:26:51.594Z,6.02
2022-12-27T16:27:51.594Z,6.06
2022-12-27T16:28:51.539Z,6.11
2022-12-27T16:29:51.560Z,6.05
2022-12-27T16:30:51.577Z,6.09
2022-12-27T16:31:51.572Z,6.11
2022-12-27T16:32:51.558Z,6.06
2022-12-27T16:33:51.512Z,6.06
2022-12-27T16:34:51.507Z,6.06
2022-12-27T16:35:51.484Z,6.03
2022-12-27T16:36:51.525Z,6.06
2022-12-27T16:37:51.460Z,6.08
2022-12-27T16:38:51.543Z,6.09
2022-12-27T16:39:51.973Z,6.11
2022-12-27T16:40:51.439Z,6.11
2022-12-27T16:41:51.577Z,6.12
2022-12-27T16:42:51.402Z,6.15
2022-12-27T16:43:51.736Z,6.15
2022-12-27T16:44:51.437Z,6.12
2022-12-27T16:45:51.394Z,6.15
2022-12-27T16:46:51.410Z,6.15
2022-12-27T16:47:51.636Z,6.15
2022-12-27T16:48:51.368Z,6.16
2022-12-27T16:49:51.373Z,6.15
2022-12-27T16:50:51.343Z,6.18
2022-12-27T16:51:51.368Z,6.24
2022-12-27T16:52:51.352Z,6.19
2022-12-27T16:53:51.388Z,6.19
2022-12-27T16:54:51.294Z,6.27
2022-12-27T16:55:51.317Z,6.25
2022-12-27T16:56:51.326Z,6.27
2022-12-27T16:57:51.252Z,6.25
2022-12-27T16:58:51.292Z,6.32
2022-12-27T16:59:51.430Z,6.34
2022-12-27T17:00:51.311Z,6.34
2022-12-27T17:01:51.295Z,6.30
2022-12-27T17:02:51.472Z,6.32
2022-12-27T17:03:51.312Z,6.37
2022-12-27T17:04:51.244Z,6.35
2022-12-27T17:06:31.393Z,6.34
2022-12-27T17:06:51.185Z,6.34
2022-12-27T17:07:52.626Z,6.35
2022-12-27T17:08:51.145Z,6.34
2022-12-27T17:09:51.184Z,6.37
2022-12-27T17:10:51.354Z,6.38
2022-12-27T17:11:51.102Z,6.42
2022-12-27T17:12:51.133Z,6.45
2022-12-27T17:13:51.120Z,6.52
2022-12-27T17:14:51.108Z,6.52
2022-12-27T17:15:51.792Z,6.56
2022-12-27T17:16:51.229Z,6.60
2022-12-27T17:17:51.062Z,6.57
2022-12-27T17:18:51.148Z,6.60
2022-12-27T17:19:51.344Z,6.57
2022-12-27T17:20:51.027Z,6.56
2022-12-27T17:21:51.053Z,6.57
2022-12-27T17:22:51.067Z,6.56
2022-12-27T17:23:51.305Z,6.60
2022-12-27T17:24:51.067Z,6.63
2022-12-27T17:25:51.018Z,6.61
2022-12-27T17:26:51.128Z,6.70
2022-12-27T17:27:50.959Z,6.68
2022-12-27T17:28:50.963Z,6.67
2022-12-27T17:29:50.939Z,6.65
2022-12-27T17:30:50.965Z,6.67
2022-12-27T17:31:51.091Z,6.67
2022-12-27T17:32:50.955Z,6.68
2022-12-27T17:33:51.833Z,6.64
2022-12-27T17:34:51.491Z,6.65
2022-12-27T17:35:50.855Z,6.65
2022-12-27T17:36:50.875Z,6.68
2022-12-27T17:37:51.738Z,6.65
2022-12-27T17:38:50.798Z,6.65
2022-12-27T17:39:50.798Z,6.63
2022-12-27T17:40:50.836Z,6.57
2022-12-27T17:41:50.857Z,6.55
2022-12-27T17:42:50.804Z,6.52
2022-12-27T17:43:50.811Z,6.52
2022-12-27T17:44:50.788Z,6.49
2022-12-27T17:45:50.840Z,6.45
2022-12-27T17:46:50.835Z,6.42
2022-12-27T17:47:50.909Z,6.38
2022-12-27T17:48:50.853Z,6.37
2022-12-27T17:49:50.827Z,6.37
2022-12-27T17:50:50.727Z,6.42
2022-12-27T17:51:50.705Z,6.43
2022-12-27T17:52:50.700Z,6.49
2022-12-27T17:53:50.712Z,6.55
2022-12-27T17:54:50.694Z,6.56
2022-12-27T17:55:50.799Z,6.60
2022-12-27T17:56:50.664Z,6.65
2022-12-27T17:57:50.651Z,6.64
2022-12-27T17:58:53.787Z,6.70
2022-12-27T17:59:50.653Z,6.67
2022-12-27T18:00:50.670Z,6.64
2022-12-27T18:01:50.868Z,6.61
2022-12-27T18:02:50.662Z,6.60
2022-12-27T18:03:50.643Z,6.57
2022-12-27T18:04:50.602Z,6.52
2022-12-27T18:05:50.599Z,6.43
2022-12-27T18:06:50.610Z,6.42
2022-12-27T18:07:50.538Z,6.43
2022-12-27T18:08:50.544Z,6.50
2022-12-27T18:09:50.558Z,6.52
2022-12-27T18:10:50.526Z,6.50
2022-12-27T18:11:50.573Z,6.50
2022-12-27T18:12:50.533Z,6.43
2022-12-27T18:13:50.514Z,6.43
2022-12-27T18:14:50.516Z,6.40
2022-12-27T18:15:50.460Z,6.38
2022-12-27T18:16:50.487Z,6.37
2022-12-27T18:17:50.519Z,6.34
2022-12-27T18:18:50.466Z,6.31
2022-12-27T18:19:50.695Z,6.28
2022-12-27T18:20:50.538Z,6.25
2022-12-27T18:21:50.465Z,6.21
2022-12-27T18:22:50.523Z,6.19
2022-12-27T18:23:50.396Z,6.21
2022-12-27T18:24:50.377Z,6.19
2022-12-27T18:25:50.369Z,6.15
2022-12-27T18:26:50.357Z,6.15
2022-12-27T18:27:50.340Z,6.15
2022-12-27T18:28:50.328Z,6.13
2022-12-27T18:29:50.365Z,6.16
2022-12-27T18:30:50.313Z,6.18
2022-12-27T18:31:50.389Z,6.18
2022-12-27T18:32:50.329Z,6.16
2022-12-27T18:33:50.269Z,6.15
2022-12-27T18:34:50.349Z,6.16
2022-12-27T18:35:50.242Z,6.15
2022-12-27T18:36:50.297Z,6.16
2022-12-27T18:37:50.226Z,6.24
2022-12-27T18:38:51.258Z,6.25
2022-12-27T18:39:50.238Z,6.24
2022-12-27T18:40:53.028Z,6.24
2022-12-27T18:41:50.282Z,6.21
2022-12-27T18:42:50.218Z,6.18
2022-12-27T18:43:50.158Z,6.18
2022-12-27T18:44:50.192Z,6.13